createdAt,value
2019-03-09T00:01:01.341Z,26.35
2019-03-09T00:03:30.886Z,31.57
2019-03-09T00:06:00.232Z,26.37
2019-03-09T00:08:29.680Z,25.23
2019-03-09T00:10:59.323Z,20.65
2019-03-09T00:13:28.859Z,20.30
2019-03-09T00:15:58.274Z,23.25
2019-03-09T00:18:28.148Z,22.65
2019-03-09T00:20:57.561Z,18.98
2019-03-09T00:23:44.846Z,18.55
2019-03-09T00:26:18.636Z,21.75
2019-03-09T00:28:49.649Z,24.85
2019-03-09T00:31:37.011Z,25.00
2019-03-09T00:34:06.456Z,27.32
2019-03-09T00:36:35.796Z,26.40
2019-03-09T00:39:06.110Z,29.45
2019-03-09T00:41:35.520Z,50.00
2019-03-09T00:44:04.905Z,225.50
2019-03-09T00:46:34.258Z,126.30
2019-03-09T00:49:03.635Z,83.87
2019-03-09T00:51:32.981Z,29.63
2019-03-09T00:54:02.359Z,57.38
2019-03-09T00:56:31.735Z,26.05
2019-03-09T00:59:01.078Z,29.25
2019-03-09T01:01:30.600Z,25.17
2019-03-09T01:04:00.039Z,32.23
2019-03-09T01:06:29.387Z,27.42
2019-03-09T01:08:58.756Z,29.55
2019-03-09T01:11:28.115Z,24.57
2019-03-09T01:13:57.492Z,22.90
2019-03-09T01:16:26.839Z,21.25
2019-03-09T01:18:56.213Z,22.48
2019-03-09T01:21:25.549Z,24.18
2019-03-09T01:23:55.155Z,24.07
2019-03-09T01:26:24.494Z,21.50
2019-03-09T01:28:54.462Z,20.57
2019-03-09T01:31:23.878Z,20.77
2019-03-09T01:33:53.252Z,22.52
2019-03-09T01:36:22.592Z,26.70
2019-03-09T01:38:51.940Z,20.80
2019-03-09T01:41:21.307Z,22.62
2019-03-09T01:43:50.649Z,23.18
2019-03-09T01:46:20.019Z,19.42
2019-03-09T01:48:49.366Z,23.95
2019-03-09T01:51:18.800Z,21.95
2019-03-09T01:53:48.214Z,22.50
2019-03-09T01:56:17.599Z,22.67
2019-03-09T01:58:46.944Z,30.65
2019-03-09T02:01:16.391Z,23.77
2019-03-09T02:03:45.810Z,23.10
2019-03-09T02:06:15.254Z,25.70
2019-03-09T02:08:44.611Z,24.45
2019-03-09T02:11:13.984Z,23.83
2019-03-09T02:13:43.401Z,34.23
2019-03-09T02:16:12.767Z,23.83
2019-03-09T02:18:42.184Z,25.40
2019-03-09T02:21:11.556Z,25.43
2019-03-09T02:23:40.907Z,26.00
2019-03-09T02:26:10.348Z,27.02
2019-03-09T02:28:39.768Z,23.70
2019-03-09T02:31:09.144Z,30.40
2019-03-09T02:33:38.509Z,22.37
2019-03-09T02:36:07.881Z,23.38
2019-03-09T02:38:38.844Z,20.27
2019-03-09T02:41:08.217Z,23.38
2019-03-09T02:43:37.555Z,21.73
2019-03-09T02:46:06.936Z,19.77
2019-03-09T02:48:36.272Z,23.45
2019-03-09T02:51:05.649Z,18.70
2019-03-09T02:53:35.056Z,19.90
2019-03-09T02:56:05.254Z,15.95
2019-03-09T02:58:34.709Z,17.50
2019-03-09T03:01:05.857Z,21.75
2019-03-09T03:03:35.199Z,18.92
2019-03-09T03:06:04.649Z,20.10
2019-03-09T03:08:33.989Z,21.12
2019-03-09T03:11:03.360Z,17.15
2019-03-09T03:13:32.704Z,16.12
2019-03-09T03:16:02.257Z,17.77
2019-03-09T03:18:31.675Z,16.10
2019-03-09T03:21:01.060Z,16.57
2019-03-09T03:23:30.469Z,17.05
2019-03-09T03:25:59.841Z,16.52
2019-03-09T03:28:29.178Z,18.52
2019-03-09T03:30:58.661Z,16.67
2019-03-09T03:33:28.166Z,18.05
2019-03-09T03:35:57.536Z,19.15
2019-03-09T03:38:26.881Z,17.87
2019-03-09T03:40:56.430Z,21.35
2019-03-09T03:43:25.806Z,20.35
2019-03-09T03:45:55.146Z,18.32
2019-03-09T03:48:24.546Z,17.62
2019-03-09T03:50:53.869Z,19.57
2019-03-09T03:53:23.246Z,18.48
2019-03-09T03:55:52.760Z,19.57
2019-03-09T03:58:22.131Z,17.67
2019-03-09T04:00:51.475Z,17.82
2019-03-09T04:03:20.851Z,19.82
2019-03-09T04:05:50.267Z,20.02
2019-03-09T04:08:19.697Z,19.05
2019-03-09T04:10:49.105Z,17.85
2019-03-09T04:13:18.545Z,14.23
2019-03-09T04:15:47.879Z,21.40
2019-03-09T04:18:17.316Z,21.48
2019-03-09T04:20:46.666Z,22.35
2019-03-09T04:23:16.112Z,23.20
2019-03-09T04:25:45.527Z,23.80
2019-03-09T04:28:14.971Z,24.70
2019-03-09T04:30:44.384Z,16.50
2019-03-09T04:33:13.762Z,16.97
2019-03-09T04:35:43.172Z,14.68
2019-03-09T04:38:12.548Z,12.37
2019-03-09T04:40:41.959Z,10.90
2019-03-09T04:43:11.318Z,9.65
2019-03-09T04:45:40.724Z,8.98
2019-03-09T04:48:10.155Z,14.73
2019-03-09T04:50:39.567Z,14.30
2019-03-09T04:53:09.013Z,13.38
2019-03-09T04:55:38.422Z,14.03
2019-03-09T04:58:07.870Z,15.30
2019-03-09T05:00:37.279Z,14.35
2019-03-09T05:03:06.950Z,13.18
2019-03-09T05:05:36.335Z,13.60
2019-03-09T05:08:11.740Z,12.40
2019-03-09T05:10:50.135Z,13.35
2019-03-09T05:13:22.872Z,12.47
2019-03-09T05:15:52.640Z,12.88
2019-03-09T05:18:22.086Z,13.95
2019-03-09T05:20:51.597Z,18.42
2019-03-09T05:23:21.040Z,27.07
2019-03-09T05:25:50.456Z,26.50
2019-03-09T05:28:19.909Z,33.35
2019-03-09T05:30:49.529Z,26.27
2019-03-09T05:33:19.070Z,27.20
2019-03-09T05:35:48.480Z,21.48
2019-03-09T05:38:17.930Z,26.23
2019-03-09T05:40:47.340Z,22.42
2019-03-09T05:43:16.789Z,24.60
2019-03-09T05:45:46.204Z,15.48
2019-03-09T05:48:15.875Z,48.85
2019-03-09T05:50:45.394Z,54.98
2019-03-09T05:53:19.193Z,69.85
2019-03-09T05:55:48.613Z,32.48
2019-03-09T05:58:18.048Z,22.35
2019-03-09T06:00:47.489Z,22.30
2019-03-09T06:03:16.910Z,25.55
2019-03-09T06:05:48.097Z,15.83
2019-03-09T06:08:17.444Z,21.30
2019-03-09T06:10:46.891Z,15.00
2019-03-09T06:13:16.305Z,18.40
2019-03-09T06:15:45.676Z,16.17
2019-03-09T06:18:15.095Z,17.65
2019-03-09T06:20:44.537Z,20.45
2019-03-09T06:23:13.950Z,14.58
2019-03-09T06:25:43.387Z,13.13
2019-03-09T06:28:12.735Z,15.25
2019-03-09T06:30:42.095Z,15.23
2019-03-09T06:33:20.221Z,13.40
2019-03-09T06:35:52.532Z,13.95
2019-03-09T06:38:33.995Z,27.87
2019-03-09T06:41:03.440Z,75.50
2019-03-09T06:43:32.856Z,61.65
2019-03-09T06:46:02.300Z,23.90
2019-03-09T06:48:31.707Z,16.27
2019-03-09T06:51:01.076Z,13.65
2019-03-09T06:53:30.497Z,15.13
2019-03-09T06:55:59.938Z,14.93
2019-03-09T06:58:29.595Z,17.45
2019-03-09T07:01:00.079Z,39.13
2019-03-09T07:03:29.581Z,18.73
2019-03-09T07:05:58.952Z,13.13
2019-03-09T07:08:28.305Z,20.57
2019-03-09T07:10:57.703Z,16.23
2019-03-09T07:13:27.018Z,15.30
2019-03-09T07:15:56.392Z,19.00
2019-03-09T07:18:25.740Z,20.92
2019-03-09T07:20:55.389Z,23.62
2019-03-09T07:23:24.723Z,13.60
2019-03-09T07:25:54.501Z,21.10
2019-03-09T07:28:23.864Z,15.78
2019-03-09T07:30:53.211Z,13.13
2019-03-09T07:33:22.555Z,19.15
2019-03-09T07:35:51.995Z,19.07
2019-03-09T07:38:21.527Z,20.02
2019-03-09T07:40:50.971Z,17.32
2019-03-09T07:43:20.389Z,16.62
2019-03-09T07:45:49.787Z,12.25
2019-03-09T07:48:19.152Z,17.48
2019-03-09T07:50:48.699Z,21.15
2019-03-09T07:53:18.134Z,15.72
2019-03-09T07:55:47.480Z,13.72
2019-03-09T07:58:16.857Z,17.27
2019-03-09T08:00:46.204Z,17.70
2019-03-09T08:03:15.653Z,22.10
2019-03-09T08:05:45.059Z,15.08
2019-03-09T08:08:14.427Z,13.28
2019-03-09T08:10:43.832Z,12.07
2019-03-09T08:13:13.196Z,13.28
2019-03-09T08:15:42.723Z,12.50
2019-03-09T08:18:12.154Z,11.12
2019-03-09T08:20:41.492Z,12.50
2019-03-09T08:23:10.863Z,13.48
2019-03-09T08:25:40.208Z,15.25
2019-03-09T08:28:09.647Z,14.87
2019-03-09T08:30:38.981Z,15.20
2019-03-09T08:33:08.357Z,14.78
2019-03-09T08:35:37.753Z,18.17
2019-03-09T08:38:07.117Z,13.70
2019-03-09T08:40:37.507Z,16.80
2019-03-09T08:43:06.871Z,18.55
2019-03-09T08:45:36.203Z,21.27
2019-03-09T08:48:05.671Z,20.62
2019-03-09T08:50:35.052Z,24.72
2019-03-09T08:53:04.455Z,18.27
2019-03-09T08:55:33.828Z,15.08
2019-03-09T08:58:03.201Z,19.67
2019-03-09T09:00:33.541Z,15.48
2019-03-09T09:03:02.911Z,11.63
2019-03-09T09:05:32.254Z,11.55
2019-03-09T09:08:03.598Z,12.43
2019-03-09T09:10:32.738Z,10.08
2019-03-09T09:13:02.107Z,13.32
2019-03-09T09:15:31.417Z,20.12
2019-03-09T09:18:00.858Z,27.27
2019-03-09T09:20:30.271Z,30.52
2019-03-09T09:22:59.825Z,21.15
2019-03-09T09:25:29.170Z,18.00
2019-03-09T09:27:58.536Z,15.68
2019-03-09T09:30:29.306Z,26.60
2019-03-09T09:32:58.737Z,18.92
2019-03-09T09:35:28.572Z,73.07
2019-03-09T09:37:57.935Z,25.17
2019-03-09T09:40:27.339Z,16.37
2019-03-09T09:42:56.773Z,15.03
2019-03-09T09:45:26.183Z,13.03
2019-03-09T09:47:56.042Z,23.90
2019-03-09T09:50:25.512Z,18.40
2019-03-09T09:52:54.880Z,18.80
2019-03-09T09:55:24.283Z,18.73
2019-03-09T09:57:53.709Z,9.65
2019-03-09T10:00:25.591Z,22.00
2019-03-09T10:02:55.008Z,12.37
2019-03-09T10:05:24.876Z,5.45
2019-03-09T10:07:54.739Z,7.17
2019-03-09T10:10:24.737Z,11.73
2019-03-09T10:12:55.916Z,11.33
2019-03-09T10:15:27.817Z,9.38
2019-03-09T10:17:57.160Z,8.93
2019-03-09T10:20:26.516Z,8.28
2019-03-09T10:23:03.724Z,16.12
2019-03-09T10:25:26.911Z,15.30
2019-03-09T10:27:56.723Z,10.80
2019-03-09T10:30:27.133Z,11.53
2019-03-09T10:32:56.706Z,8.98
2019-03-09T10:35:26.146Z,8.10
2019-03-09T10:37:55.499Z,5.85
2019-03-09T10:40:24.856Z,9.43
2019-03-09T10:42:54.261Z,7.12
2019-03-09T10:45:23.618Z,6.97
2019-03-09T10:47:52.982Z,5.50
2019-03-09T10:50:22.342Z,10.35
2019-03-09T10:52:51.675Z,14.63
2019-03-09T10:55:27.065Z,12.60
2019-03-09T10:57:56.649Z,6.58
2019-03-09T11:00:34.261Z,5.47
2019-03-09T11:03:03.603Z,8.98
2019-03-09T11:05:33.373Z,6.40
2019-03-09T11:08:03.444Z,5.22
2019-03-09T11:10:32.802Z,6.87
2019-03-09T11:13:02.138Z,6.75
2019-03-09T11:15:32.044Z,6.78
2019-03-09T11:18:01.377Z,4.47
2019-03-09T11:20:30.749Z,5.72
2019-03-09T11:23:00.082Z,4.70
2019-03-09T11:25:29.437Z,5.30
2019-03-09T11:28:10.128Z,6.05
2019-03-09T11:30:39.488Z,3.55
2019-03-09T11:33:08.826Z,4.00
2019-03-09T11:35:38.262Z,4.45
2019-03-09T11:38:07.593Z,5.62
2019-03-09T11:40:36.950Z,4.03
2019-03-09T11:43:06.295Z,6.03
2019-03-09T11:45:35.656Z,7.25
2019-03-09T11:48:05.092Z,4.10
2019-03-09T11:50:34.453Z,6.25
2019-03-09T11:53:03.792Z,9.28
2019-03-09T11:55:33.145Z,5.78
2019-03-09T11:58:02.478Z,6.55
2019-03-09T12:00:36.114Z,5.50
2019-03-09T12:03:05.448Z,5.60
2019-03-09T12:05:34.809Z,4.65
2019-03-09T12:08:04.303Z,3.50
2019-03-09T12:10:33.680Z,5.08
2019-03-09T12:13:03.076Z,3.75
2019-03-09T12:15:33.192Z,2.25
2019-03-09T12:18:02.584Z,2.17
2019-03-09T12:20:32.691Z,3.45
2019-03-09T12:23:16.352Z,8.03
2019-03-09T12:25:45.721Z,3.95
2019-03-09T12:28:15.125Z,4.42
2019-03-09T12:30:44.491Z,4.72
2019-03-09T12:33:13.907Z,2.20
2019-03-09T12:35:44.217Z,3.47
2019-03-09T12:38:13.668Z,3.25
2019-03-09T12:40:43.021Z,5.35
2019-03-09T12:43:12.356Z,2.75
2019-03-09T12:45:41.717Z,5.40
2019-03-09T12:48:11.169Z,3.60
2019-03-09T12:50:40.524Z,1.75
2019-03-09T12:53:09.865Z,4.08
2019-03-09T12:55:39.223Z,6.50
2019-03-09T12:58:08.559Z,4.42
2019-03-09T13:00:37.998Z,4.30
2019-03-09T13:03:07.336Z,3.00
2019-03-09T13:05:36.693Z,5.30
2019-03-09T13:08:06.038Z,3.30
2019-03-09T13:10:35.483Z,4.17
2019-03-09T13:13:04.896Z,5.17
2019-03-09T13:15:34.334Z,7.20
2019-03-09T13:18:03.675Z,2.15
2019-03-09T13:20:33.110Z,3.67
2019-03-09T13:23:02.521Z,5.80
2019-03-09T13:25:31.958Z,5.20
2019-03-09T13:28:01.290Z,5.35
2019-03-09T13:30:30.722Z,4.17
2019-03-09T13:33:00.125Z,2.90
2019-03-09T13:35:29.495Z,4.53
2019-03-09T13:37:58.859Z,2.85
2019-03-09T13:40:28.607Z,5.12
2019-03-09T13:42:58.045Z,4.83
2019-03-09T13:45:27.459Z,3.77
2019-03-09T13:47:56.993Z,5.30
2019-03-09T13:50:26.355Z,2.72
2019-03-09T13:52:55.692Z,5.40
2019-03-09T13:55:25.105Z,2.70
2019-03-09T13:57:54.729Z,5.37
2019-03-09T14:00:24.105Z,8.45
2019-03-09T14:02:53.532Z,4.25
2019-03-09T14:05:22.942Z,5.37
2019-03-09T14:07:52.301Z,4.58
2019-03-09T14:10:21.637Z,4.67
2019-03-09T14:12:51.005Z,2.95
2019-03-09T14:15:20.358Z,5.15
2019-03-09T14:17:49.714Z,10.25
2019-03-09T14:20:19.200Z,6.47
2019-03-09T14:22:48.640Z,7.45
2019-03-09T14:25:18.055Z,3.33
2019-03-09T14:27:47.421Z,8.65
2019-03-09T14:30:19.935Z,4.45
2019-03-09T14:32:49.301Z,5.72
2019-03-09T14:35:18.646Z,6.70
2019-03-09T14:37:48.074Z,9.45
2019-03-09T14:40:17.578Z,8.78
2019-03-09T14:42:46.951Z,4.47
2019-03-09T14:45:17.832Z,5.87
2019-03-09T14:47:47.193Z,4.90
2019-03-09T14:50:16.540Z,5.78
2019-03-09T14:52:45.978Z,5.33
2019-03-09T14:55:15.318Z,7.75
2019-03-09T14:57:44.684Z,6.25
2019-03-09T15:00:16.383Z,9.53
2019-03-09T15:02:45.749Z,6.92
2019-03-09T15:05:15.079Z,5.22
2019-03-09T15:07:44.449Z,7.42
2019-03-09T15:10:14.128Z,8.10
2019-03-09T15:12:43.487Z,6.55
2019-03-09T15:15:16.975Z,5.72
2019-03-09T15:17:46.417Z,7.35
2019-03-09T15:20:16.394Z,8.48
2019-03-09T15:22:45.770Z,8.38
2019-03-09T15:25:18.793Z,8.65
2019-03-09T15:27:48.171Z,9.58
2019-03-09T15:30:18.518Z,10.28
2019-03-09T15:32:47.896Z,8.33
2019-03-09T15:35:17.738Z,7.87
2019-03-09T15:37:47.114Z,32.15
2019-03-09T15:40:17.607Z,7.92
2019-03-09T15:42:46.952Z,9.33
2019-03-09T15:45:17.127Z,5.75
2019-03-09T15:47:46.774Z,8.25
2019-03-09T15:50:17.247Z,8.90
2019-03-09T15:52:46.615Z,9.73
2019-03-09T15:55:16.018Z,9.50
2019-03-09T15:57:45.469Z,14.30
2019-03-09T16:00:22.826Z,9.75
2019-03-09T16:02:52.323Z,8.15
2019-03-09T16:05:21.670Z,11.60
2019-03-09T16:07:51.119Z,8.63
2019-03-09T16:10:21.491Z,13.22
2019-03-09T16:12:50.859Z,11.73
2019-03-09T16:15:20.200Z,10.05
2019-03-09T16:17:49.572Z,17.52
2019-03-09T16:20:23.212Z,16.60
2019-03-09T16:22:52.976Z,14.73
2019-03-09T16:25:22.326Z,16.35
2019-03-09T16:27:51.752Z,10.25
2019-03-09T16:30:21.902Z,12.88
2019-03-09T16:32:51.263Z,12.65
2019-03-09T16:35:20.606Z,11.73
2019-03-09T16:37:51.002Z,7.78
2019-03-09T16:40:22.231Z,12.03
2019-03-09T16:42:51.607Z,10.65
2019-03-09T16:45:20.948Z,11.90
2019-03-09T16:47:50.285Z,9.13
2019-03-09T16:50:19.812Z,7.10
2019-03-09T16:52:49.221Z,9.13
2019-03-09T16:55:18.669Z,71.62
2019-03-09T16:57:48.002Z,14.68
2019-03-09T17:00:23.969Z,25.35
2019-03-09T17:02:53.313Z,48.65
2019-03-09T17:05:22.680Z,80.70
2019-03-09T17:07:52.033Z,117.50
2019-03-09T17:10:21.473Z,150.18
2019-03-09T17:12:50.892Z,108.30
2019-03-09T17:15:22.926Z,47.90
2019-03-09T17:17:52.260Z,16.05
2019-03-09T17:20:21.621Z,8.70
2019-03-09T17:22:50.954Z,7.92
2019-03-09T17:25:20.312Z,8.55
2019-03-09T17:27:49.678Z,21.12
2019-03-09T17:30:21.040Z,51.92
2019-03-09T17:32:50.454Z,26.50
2019-03-09T17:35:19.817Z,22.32
2019-03-09T17:37:49.154Z,19.20
2019-03-09T17:40:18.522Z,55.33
2019-03-09T17:42:47.936Z,202.00
2019-03-09T17:45:20.558Z,89.65
2019-03-09T17:47:49.970Z,76.25
2019-03-09T17:50:19.341Z,79.47
2019-03-09T17:52:48.680Z,38.05
2019-03-09T17:55:18.118Z,41.73
2019-03-09T17:57:47.472Z,38.28
2019-03-09T18:00:41.824Z,31.77
2019-03-09T18:03:02.468Z,27.05
2019-03-09T18:05:31.903Z,25.82
2019-03-09T18:08:01.249Z,21.77
2019-03-09T18:10:34.419Z,16.77
2019-03-09T18:13:03.752Z,7.37
2019-03-09T18:15:33.116Z,9.90
2019-03-09T18:18:02.459Z,8.03
2019-03-09T18:20:31.818Z,12.40
2019-03-09T18:23:01.163Z,11.97
2019-03-09T18:25:30.589Z,9.25
2019-03-09T18:27:59.927Z,7.50
2019-03-09T18:30:29.281Z,10.05
2019-03-09T18:32:58.693Z,10.30
2019-03-09T18:35:28.047Z,6.95
2019-03-09T18:37:57.379Z,11.10
2019-03-09T18:40:26.747Z,7.47
2019-03-09T18:42:56.155Z,8.95
2019-03-09T18:45:25.691Z,11.38
2019-03-09T18:47:55.095Z,4.45
2019-03-09T18:50:24.723Z,13.10
2019-03-09T18:52:54.077Z,33.75
2019-03-09T18:55:23.439Z,28.90
2019-03-09T18:57:52.880Z,20.92
2019-03-09T19:00:22.418Z,11.00
2019-03-09T19:02:51.762Z,11.22
2019-03-09T19:05:21.121Z,8.80
2019-03-09T19:07:50.470Z,10.28
2019-03-09T19:10:21.227Z,5.97
2019-03-09T19:12:50.563Z,10.18
2019-03-09T19:15:19.932Z,18.55
2019-03-09T19:17:49.281Z,14.18
2019-03-09T19:20:20.055Z,11.75
2019-03-09T19:22:49.397Z,12.07
2019-03-09T19:25:18.836Z,25.08
2019-03-09T19:27:48.261Z,23.92
2019-03-09T19:30:21.780Z,18.00
2019-03-09T19:32:59.972Z,22.90
2019-03-09T19:35:22.262Z,21.68
2019-03-09T19:37:51.594Z,16.60
2019-03-09T19:40:21.970Z,34.83
2019-03-09T19:42:51.380Z,40.25
2019-03-09T19:45:25.333Z,30.72
2019-03-09T19:47:54.750Z,22.70
2019-03-09T19:50:25.350Z,27.93
2019-03-09T19:52:54.778Z,31.80
2019-03-09T19:55:24.149Z,44.80
2019-03-09T19:57:53.493Z,29.30
2019-03-09T20:00:22.874Z,22.00
2019-03-09T20:02:52.223Z,44.98
2019-03-09T20:05:21.750Z,21.17
2019-03-09T20:07:51.177Z,17.40
2019-03-09T20:10:21.700Z,30.25
2019-03-09T20:12:51.044Z,25.02
2019-03-09T20:15:20.918Z,23.77
2019-03-09T20:17:50.371Z,28.15
2019-03-09T20:20:20.012Z,20.30
2019-03-09T20:22:49.809Z,23.50
2019-03-09T20:25:19.265Z,37.40
2019-03-09T20:27:48.843Z,22.13
2019-03-09T20:30:19.095Z,18.17
2019-03-09T20:32:48.626Z,13.30
2019-03-09T20:35:18.111Z,14.60
2019-03-09T20:37:47.698Z,17.92
2019-03-09T20:40:18.536Z,19.73
2019-03-09T20:42:48.124Z,14.73
2019-03-09T20:45:19.921Z,14.93
2019-03-09T20:47:50.803Z,19.57
2019-03-09T20:50:25.890Z,13.55
2019-03-09T20:52:55.364Z,14.43
2019-03-09T20:55:24.874Z,21.25
2019-03-09T20:57:54.449Z,23.50
2019-03-09T21:00:23.921Z,16.90
2019-03-09T21:02:53.754Z,16.52
2019-03-09T21:05:23.155Z,20.88
2019-03-09T21:07:52.607Z,17.05
2019-03-09T21:10:21.935Z,20.15
2019-03-09T21:12:55.930Z,18.70
2019-03-09T21:15:25.265Z,15.65
2019-03-09T21:17:54.699Z,13.62
2019-03-09T21:20:24.307Z,10.32
2019-03-09T21:22:53.731Z,9.90
2019-03-09T21:25:23.071Z,10.68
2019-03-09T21:27:52.455Z,11.85
2019-03-09T21:30:21.859Z,12.90
2019-03-09T21:32:51.224Z,13.15
2019-03-09T21:35:20.635Z,34.45
2019-03-09T21:37:50.011Z,31.87
2019-03-09T21:40:19.357Z,10.95
2019-03-09T21:42:48.783Z,5.95
2019-03-09T21:45:18.191Z,11.10
2019-03-09T21:47:47.639Z,14.53
2019-03-09T21:50:17.903Z,33.13
2019-03-09T21:52:47.351Z,16.20
2019-03-09T21:55:17.118Z,6.67
2019-03-09T21:57:46.479Z,5.55
2019-03-09T22:00:19.079Z,5.50
2019-03-09T22:02:50.396Z,3.95
2019-03-09T22:05:19.559Z,5.33
2019-03-09T22:07:48.992Z,4.58
2019-03-09T22:10:18.332Z,2.85
2019-03-09T22:12:47.787Z,6.75
2019-03-09T22:15:20.022Z,3.83
2019-03-09T22:17:52.053Z,4.05
2019-03-09T22:20:21.386Z,3.95
2019-03-09T22:22:50.831Z,3.75
2019-03-09T22:25:20.170Z,3.50
2019-03-09T22:27:49.599Z,4.28
2019-03-09T22:30:21.207Z,4.83
2019-03-09T22:32:51.410Z,3.83
2019-03-09T22:35:20.748Z,6.42
2019-03-09T22:37:50.123Z,5.60
2019-03-09T22:40:20.293Z,4.83
2019-03-09T22:42:49.649Z,4.58
2019-03-09T22:45:18.993Z,4.95
2019-03-09T22:47:48.350Z,4.00
2019-03-09T22:50:19.397Z,2.90
2019-03-09T22:52:48.764Z,2.42
2019-03-09T22:55:18.126Z,2.55
2019-03-09T22:57:47.499Z,1.55
2019-03-09T23:00:20.096Z,1.67
2019-03-09T23:02:49.524Z,4.00
2019-03-09T23:05:18.852Z,1.70
2019-03-09T23:07:48.274Z,1.57
2019-03-09T23:10:22.736Z,1.52
2019-03-09T23:12:52.106Z,2.70
2019-03-09T23:15:21.515Z,3.33
2019-03-09T23:17:50.876Z,3.40
2019-03-09T23:20:20.212Z,2.12
2019-03-09T23:22:49.596Z,2.52
2019-03-09T23:25:19.004Z,3.30
2019-03-09T23:27:48.370Z,1.62
2019-03-09T23:30:19.888Z,3.72
2019-03-09T23:32:49.226Z,3.72
2019-03-09T23:35:18.659Z,5.60
2019-03-09T23:37:48.005Z,3.08
2019-03-09T23:40:18.503Z,7.97
2019-03-09T23:42:47.912Z,7.10
2019-03-09T23:45:19.643Z,6.28
2019-03-09T23:47:49.056Z,11.22
2019-03-09T23:50:19.264Z,9.18
2019-03-09T23:52:48.583Z,5.83
2019-03-09T23:55:22.558Z,11.95
2019-03-09T23:57:49.407Z,7.72
